createdAt,value
2018-12-22T01:05:59.944Z,0.87
2018-12-22T01:11:03.339Z,0.63
2018-12-22T01:16:06.676Z,0.63
2018-12-22T01:21:10.013Z,0.63
2018-12-22T01:26:13.375Z,0.30
2018-12-22T02:34:44.697Z,0.30
2018-12-22T02:39:48.028Z,0.20
2018-12-22T02:44:51.354Z,0.30
2018-12-22T02:49:55.453Z,0.27
2018-12-22T02:54:58.816Z,0.20
2018-12-22T04:02:18.685Z,0.20
2018-12-22T04:07:22.788Z,0.20
2018-12-22T04:12:26.133Z,0.20
2018-12-22T04:17:30.252Z,0.10
2018-12-22T04:22:34.348Z,0.27
2018-12-22T04:27:37.773Z,0.20
2018-12-22T06:01:24.773Z,0.10
2018-12-22T06:06:28.104Z,0.97
2018-12-22T06:11:32.201Z,0.13
2018-12-22T06:16:35.530Z,0.10
2018-12-22T06:21:39.638Z,0.20
2018-12-22T06:26:44.609Z,0.10
2018-12-22T06:31:48.737Z,1.53
2018-12-22T06:36:52.077Z,0.97
2018-12-22T06:41:56.764Z,0.40
2018-12-22T06:47:00.382Z,0.50
2018-12-22T06:52:03.725Z,0.20
2018-12-22T06:57:07.855Z,0.43
2018-12-22T07:02:15.984Z,0.27
2018-12-22T07:07:21.759Z,0.20
2018-12-22T07:12:25.224Z,0.87
2018-12-22T07:17:28.593Z,1.80
2018-12-22T07:22:32.613Z,0.10
2018-12-22T07:27:35.952Z,1.17
2018-12-22T07:32:39.289Z,0.37
2018-12-22T07:37:42.622Z,0.20
2018-12-22T07:42:46.058Z,0.20
2018-12-22T07:47:49.828Z,0.23
2018-12-22T07:52:54.057Z,0.37
2018-12-22T07:57:59.436Z,0.20
2018-12-22T08:03:01.774Z,0.20
2018-12-22T08:08:06.392Z,0.10
2018-12-22T08:13:10.510Z,0.23
2018-12-22T08:18:16.357Z,0.20
2018-12-22T08:23:19.714Z,0.20
2018-12-22T08:28:23.621Z,0.20
2018-12-22T08:33:30.104Z,0.27
2018-12-22T08:38:35.866Z,0.20
2018-12-22T08:43:40.458Z,0.20
2018-12-22T08:53:57.117Z,1.57
2018-12-22T08:59:01.238Z,0.37
2018-12-22T09:04:04.606Z,0.70
2018-12-22T09:09:08.733Z,0.20
2018-12-22T09:14:12.847Z,0.73
2018-12-22T09:19:16.213Z,0.17
2018-12-22T09:24:19.556Z,0.20
2018-12-22T09:34:36.877Z,0.50
2018-12-22T09:39:40.223Z,0.60
2018-12-22T09:44:43.561Z,0.57
2018-12-22T09:49:46.941Z,1.10
2018-12-22T09:54:50.360Z,1.07
2018-12-22T09:59:53.706Z,0.57
2018-12-22T10:04:57.928Z,1.13
2018-12-22T10:10:02.988Z,0.20
2018-12-22T10:15:06.412Z,0.50
2018-12-22T10:20:15.339Z,0.93
2018-12-22T10:25:18.826Z,0.30
2018-12-22T10:30:22.189Z,0.20
2018-12-22T10:35:30.713Z,1.40
2018-12-22T10:45:46.466Z,0.30
2018-12-22T10:50:49.949Z,0.30
2018-12-22T10:55:53.302Z,0.80
2018-12-22T11:00:56.694Z,1.57
2018-12-22T11:06:00.025Z,1.90
2018-12-22T11:11:03.380Z,1.80
2018-12-22T11:16:06.726Z,0.67
2018-12-22T11:21:10.840Z,1.50
2018-12-22T11:26:14.181Z,0.60
2018-12-22T11:31:17.540Z,1.40
2018-12-22T11:36:20.884Z,0.33
2018-12-22T11:41:24.993Z,2.03
2018-12-22T11:46:28.343Z,3.90
2018-12-22T11:51:31.707Z,0.83
2018-12-22T11:56:35.048Z,1.50
2018-12-22T12:01:48.870Z,2.43
2018-12-22T12:06:52.212Z,0.87
2018-12-22T12:11:56.325Z,2.83
2018-12-22T12:16:59.675Z,1.10
2018-12-22T12:22:03.056Z,2.53
2018-12-22T12:27:06.639Z,1.00
2018-12-22T12:32:10.613Z,0.87
2018-12-22T12:37:14.167Z,1.23
2018-12-22T12:42:19.695Z,1.63
2018-12-22T12:47:24.326Z,0.87
2018-12-22T12:52:30.011Z,3.37
2018-12-22T12:57:34.989Z,1.23
2018-12-22T13:02:38.343Z,2.30
2018-12-22T13:07:42.692Z,1.47
2018-12-22T13:13:17.577Z,1.17
2018-12-22T13:18:21.540Z,2.57
2018-12-22T13:23:25.180Z,2.93
2018-12-22T13:28:28.538Z,5.40
2018-12-22T13:33:31.886Z,1.17
2018-12-22T13:38:42.996Z,3.23
2018-12-22T13:43:47.100Z,3.03
2018-12-22T13:48:50.464Z,1.60
2018-12-22T13:53:53.900Z,4.70
2018-12-22T14:05:36.629Z,1.33
2018-12-22T14:10:40.723Z,2.30
2018-12-22T14:15:44.060Z,2.03
2018-12-22T14:20:48.160Z,1.43
2018-12-22T14:25:51.519Z,2.00
2018-12-22T14:30:54.888Z,1.33
2018-12-22T14:36:11.982Z,4.03
2018-12-22T14:41:15.318Z,2.53
2018-12-22T14:46:18.644Z,2.67
2018-12-22T14:51:21.965Z,2.10
2018-12-22T14:56:28.724Z,1.93
2018-12-22T15:01:32.165Z,1.47
2018-12-22T15:06:41.708Z,1.27
2018-12-22T15:11:45.049Z,2.33
2018-12-22T15:16:50.627Z,2.70
2018-12-22T15:21:53.956Z,2.93
2018-12-22T15:26:57.277Z,2.73
2018-12-22T15:32:00.864Z,1.97
2018-12-22T15:37:04.470Z,3.57
2018-12-22T15:42:07.831Z,2.13
2018-12-22T15:47:11.369Z,3.67
2018-12-22T15:52:15.584Z,1.23
2018-12-22T15:57:19.038Z,1.67
2018-12-22T16:02:23.304Z,3.17
2018-12-22T16:07:26.769Z,1.73
2018-12-22T16:12:30.123Z,1.20
2018-12-22T16:17:33.457Z,3.27
2018-12-22T16:22:36.788Z,4.63
2018-12-22T16:27:42.481Z,3.20
2018-12-22T16:32:46.676Z,4.07
2018-12-22T16:37:49.949Z,3.90
2018-12-22T16:42:53.613Z,4.37
2018-12-22T16:47:56.952Z,3.53
2018-12-22T16:53:01.101Z,3.60
2018-12-22T16:58:06.936Z,3.53
2018-12-22T17:03:11.870Z,2.20
2018-12-22T17:08:15.197Z,1.97
2018-12-22T17:13:30.076Z,0.57
2018-12-22T17:18:47.692Z,0.87
2018-12-22T17:23:56.782Z,2.70
2018-12-22T17:29:00.256Z,0.53
2018-12-22T17:34:06.829Z,2.00
2018-12-22T17:39:36.596Z,1.30
2018-12-22T17:44:34.332Z,1.47
2018-12-22T17:49:37.705Z,1.07
2018-12-22T17:54:41.048Z,3.63
2018-12-22T17:59:44.705Z,2.80
2018-12-22T18:04:48.029Z,2.47
2018-12-22T18:09:52.505Z,2.70
2018-12-22T18:14:56.657Z,4.63
2018-12-22T18:20:00.018Z,1.90
2018-12-22T18:25:04.068Z,1.87
2018-12-22T18:30:08.615Z,2.83
2018-12-22T18:35:15.162Z,3.10
2018-12-22T18:40:20.089Z,1.67
2018-12-22T18:45:28.772Z,0.93
2018-12-22T18:50:33.965Z,1.47
2018-12-22T18:55:39.349Z,1.83
2018-12-22T19:00:43.469Z,0.80
2018-12-22T19:05:46.804Z,2.17
2018-12-22T19:10:50.164Z,4.33
2018-12-22T19:15:56.139Z,3.87
2018-12-22T19:20:59.628Z,4.07
2018-12-22T19:26:11.107Z,3.77
2018-12-22T19:31:16.829Z,4.50
2018-12-22T19:36:21.481Z,2.33
2018-12-22T19:41:25.020Z,4.27
2018-12-22T19:46:28.348Z,3.87
2018-12-22T19:51:31.694Z,3.00
2018-12-22T19:56:35.027Z,3.57
2018-12-22T20:01:51.902Z,3.23
2018-12-22T20:06:56.424Z,2.83
2018-12-22T20:12:02.900Z,3.30
2018-12-22T20:17:07.885Z,5.70
2018-12-22T20:22:13.762Z,5.27
2018-12-22T20:27:17.148Z,4.77
2018-12-22T20:32:27.550Z,6.40
2018-12-22T20:37:31.652Z,4.73
2018-12-22T20:42:57.847Z,4.53
2018-12-22T20:48:01.185Z,3.77
2018-12-22T20:53:04.524Z,2.40
2018-12-22T20:58:07.873Z,5.13
2018-12-22T21:03:11.223Z,4.83
2018-12-22T21:08:14.572Z,2.43
2018-12-22T21:13:18.669Z,5.03
2018-12-22T21:18:22.013Z,2.40
2018-12-22T21:23:26.108Z,3.00
2018-12-22T21:28:29.441Z,3.27
2018-12-22T21:33:32.772Z,6.13
2018-12-22T21:38:36.864Z,4.23
2018-12-22T21:43:40.201Z,4.17
2018-12-22T21:48:43.531Z,5.87
2018-12-22T21:53:47.629Z,3.10
2018-12-22T21:58:50.981Z,3.83
2018-12-22T22:03:54.324Z,2.73
2018-12-22T22:08:57.665Z,2.60
2018-12-22T22:14:01.016Z,7.60
2018-12-22T22:19:04.372Z,3.40
2018-12-22T22:24:07.701Z,1.43
2018-12-22T22:29:11.027Z,4.33
2018-12-22T22:34:15.120Z,3.60
2018-12-22T22:39:18.458Z,3.80
2018-12-22T22:44:21.796Z,3.47
2018-12-22T22:49:25.146Z,2.67
2018-12-22T22:54:28.472Z,2.07
2018-12-22T22:59:31.813Z,1.43
2018-12-22T23:36:13.353Z,4.40
2018-12-22T23:41:17.451Z,2.53
2018-12-22T23:46:20.793Z,3.30
2018-12-22T23:51:24.910Z,3.17
2018-12-22T23:56:28.266Z,2.87
